sensor_id;sensor_type;location;lat;lon;timestamp;P1;durP1;ratioP1;P2;durP2;ratioP2
77738;SDS011;66904;59.926;30.404;2023-09-19T00:01:30;1.20;;;0.60;;
77738;SDS011;66904;59.926;30.404;2023-09-19T00:06:30;0.80;;;0.60;;
77738;SDS011;66904;59.926;30.404;2023-09-19T00:11:31;0.85;;;0.40;;
77738;SDS011;66904;59.926;30.404;2023-09-19T00:16:32;1.20;;;0.65;;
77738;SDS011;66904;59.926;30.404;2023-09-19T00:21:33;1.23;;;0.50;;
77738;SDS011;66904;59.926;30.404;2023-09-19T00:26:35;0.80;;;0.30;;
77738;SDS011;66904;59.926;30.404;2023-09-19T00:31:36;0.77;;;0.43;;
77738;SDS011;66904;59.926;30.404;2023-09-19T00:36:37;0.88;;;0.40;;
77738;SDS011;66904;59.926;30.404;2023-09-19T00:41:43;1.10;;;0.50;;
77738;SDS011;66904;59.926;30.404;2023-09-19T00:46:44;1.25;;;0.60;;
77738;SDS011;66904;59.926;30.404;2023-09-19T00:51:49;0.60;;;0.30;;
77738;SDS011;66904;59.926;30.404;2023-09-19T00:56:50;0.85;;;0.45;;
77738;SDS011;66904;59.926;30.404;2023-09-19T01:01:52;1.00;;;0.60;;
77738;SDS011;66904;59.926;30.404;2023-09-19T01:06:54;0.32;;;0.15;;
77738;SDS011;66904;59.926;30.404;2023-09-19T01:11:58;1.20;;;0.40;;
77738;SDS011;66904;59.926;30.404;2023-09-19T01:17:05;0.75;;;0.35;;
77738;SDS011;66904;59.926;30.404;2023-09-19T01:33:23;0.95;;;0.40;;
77738;SDS011;66904;59.926;30.404;2023-09-19T01:38:24;0.77;;;0.40;;
77738;SDS011;66904;59.926;30.404;2023-09-19T01:43:36;0.60;;;0.30;;
77738;SDS011;66904;59.926;30.404;2023-09-19T01:48:41;1.55;;;0.30;;
77738;SDS011;66904;59.926;30.404;2023-09-19T01:53:51;0.82;;;0.40;;
77738;SDS011;66904;59.926;30.404;2023-09-19T01:59:07;0.65;;;0.30;;
77738;SDS011;66904;59.926;30.404;2023-09-19T02:04:12;1.23;;;0.40;;
77738;SDS011;66904;59.926;30.404;2023-09-19T02:09:13;1.42;;;0.50;;
77738;SDS011;66904;59.926;30.404;2023-09-19T02:14:15;0.73;;;0.40;;
77738;SDS011;66904;59.926;30.404;2023-09-19T02:19:15;0.82;;;0.30;;
77738;SDS011;66904;59.926;30.404;2023-09-19T02:24:17;0.65;;;0.35;;
77738;SDS011;66904;59.926;30.404;2023-09-19T02:29:19;0.70;;;0.40;;
77738;SDS011;66904;59.926;30.404;2023-09-19T02:34:19;0.40;;;0.30;;
77738;SDS011;66904;59.926;30.404;2023-09-19T02:39:23;0.65;;;0.30;;
77738;SDS011;66904;59.926;30.404;2023-09-19T02:44:23;0.60;;;0.40;;
77738;SDS011;66904;59.926;30.404;2023-09-19T02:49:24;0.30;;;0.25;;
77738;SDS011;66904;59.926;30.404;2023-09-19T02:54:25;0.85;;;0.30;;
77738;SDS011;66904;59.926;30.404;2023-09-19T02:59:25;0.90;;;0.20;;
77738;SDS011;66904;59.926;30.404;2023-09-19T03:04:26;0.32;;;0.20;;
77738;SDS011;66904;59.926;30.404;2023-09-19T03:09:27;1.02;;;0.30;;
77738;SDS011;66904;59.926;30.404;2023-09-19T03:14:27;0.52;;;0.20;;
77738;SDS011;66904;59.926;30.404;2023-09-19T03:19:30;0.40;;;0.20;;
77738;SDS011;66904;59.926;30.404;2023-09-19T03:24:33;0.57;;;0.35;;
77738;SDS011;66904;59.926;30.404;2023-09-19T03:29:35;0.63;;;0.30;;
77738;SDS011;66904;59.926;30.404;2023-09-19T03:34:37;0.50;;;0.20;;
77738;SDS011;66904;59.926;30.404;2023-09-19T03:39:43;0.30;;;0.10;;
77738;SDS011;66904;59.926;30.404;2023-09-19T03:44:43;0.60;;;0.30;;
77738;SDS011;66904;59.926;30.404;2023-09-19T03:49:44;0.32;;;0.13;;
77738;SDS011;66904;59.926;30.404;2023-09-19T03:54:45;1.30;;;0.30;;
77738;SDS011;66904;59.926;30.404;2023-09-19T03:59:45;0.30;;;0.13;;
77738;SDS011;66904;59.926;30.404;2023-09-19T04:04:47;0.63;;;0.30;;
77738;SDS011;66904;59.926;30.404;2023-09-19T04:09:48;0.30;;;0.10;;
77738;SDS011;66904;59.926;30.404;2023-09-19T04:14:49;0.13;;;0.10;;
77738;SDS011;66904;59.926;30.404;2023-09-19T04:19:50;0.98;;;0.28;;
77738;SDS011;66904;59.926;30.404;2023-09-19T04:24:50;0.45;;;0.22;;
77738;SDS011;66904;59.926;30.404;2023-09-19T04:29:51;1.08;;;0.50;;
77738;SDS011;66904;59.926;30.404;2023-09-19T04:34:53;0.60;;;0.20;;
77738;SDS011;66904;59.926;30.404;2023-09-19T04:39:54;1.92;;;0.30;;
77738;SDS011;66904;59.926;30.404;2023-09-19T04:44:54;1.05;;;0.32;;
77738;SDS011;66904;59.926;30.404;2023-09-19T04:49:55;3.92;;;0.30;;
77738;SDS011;66904;59.926;30.404;2023-09-19T04:54:56;1.05;;;0.30;;
77738;SDS011;66904;59.926;30.404;2023-09-19T04:59:57;0.77;;;0.20;;
77738;SDS011;66904;59.926;30.404;2023-09-19T05:04:57;0.63;;;0.22;;
77738;SDS011;66904;59.926;30.404;2023-09-19T05:09:59;0.80;;;0.22;;
77738;SDS011;66904;59.926;30.404;2023-09-19T05:15:00;1.20;;;0.30;;
77738;SDS011;66904;59.926;30.404;2023-09-19T05:20:02;1.65;;;0.20;;
77738;SDS011;66904;59.926;30.404;2023-09-19T05:25:15;0.43;;;0.10;;
77738;SDS011;66904;59.926;30.404;2023-09-19T05:30:20;2.40;;;0.20;;
77738;SDS011;66904;59.926;30.404;2023-09-19T05:35:22;2.50;;;0.30;;
77738;SDS011;66904;59.926;30.404;2023-09-19T05:40:23;0.60;;;0.20;;
77738;SDS011;66904;59.926;30.404;2023-09-19T05:45:24;0.25;;;0.00;;
77738;SDS011;66904;59.926;30.404;2023-09-19T05:50:25;0.75;;;0.30;;
77738;SDS011;66904;59.926;30.404;2023-09-19T05:55:26;0.80;;;0.30;;
77738;SDS011;66904;59.926;30.404;2023-09-19T06:00:28;0.28;;;0.20;;
77738;SDS011;66904;59.926;30.404;2023-09-19T06:05:31;0.70;;;0.20;;
77738;SDS011;66904;59.926;30.404;2023-09-19T06:10:32;0.40;;;0.20;;
77738;SDS011;66904;59.926;30.404;2023-09-19T06:15:32;0.40;;;0.10;;
77738;SDS011;66904;59.926;30.404;2023-09-19T06:20:35;0.50;;;0.10;;
77738;SDS011;66904;59.926;30.404;2023-09-19T06:25:35;0.38;;;0.20;;
77738;SDS011;66904;59.926;30.404;2023-09-19T06:30:36;0.25;;;0.25;;
77738;SDS011;66904;59.926;30.404;2023-09-19T06:35:40;0.60;;;0.10;;
77738;SDS011;66904;59.926;30.404;2023-09-19T06:40:41;1.65;;;0.20;;
77738;SDS011;66904;59.926;30.404;2023-09-19T06:45:42;1.20;;;0.30;;
77738;SDS011;66904;59.926;30.404;2023-09-19T06:50:43;0.68;;;0.50;;
77738;SDS011;66904;59.926;30.404;2023-09-19T06:55:44;0.70;;;0.40;;
77738;SDS011;66904;59.926;30.404;2023-09-19T07:00:45;0.70;;;0.30;;
77738;SDS011;66904;59.926;30.404;2023-09-19T07:05:46;0.63;;;0.30;;
77738;SDS011;66904;59.926;30.404;2023-09-19T07:10:48;0.60;;;0.30;;
77738;SDS011;66904;59.926;30.404;2023-09-19T07:15:48;1.10;;;0.35;;
77738;SDS011;66904;59.926;30.404;2023-09-19T07:20:50;1.70;;;0.60;;
77738;SDS011;66904;59.926;30.404;2023-09-19T07:25:50;0.73;;;0.30;;
77738;SDS011;66904;59.926;30.404;2023-09-19T07:30:51;0.73;;;0.30;;
77738;SDS011;66904;59.926;30.404;2023-09-19T07:35:52;0.50;;;0.20;;
77738;SDS011;66904;59.926;30.404;2023-09-19T07:40:53;1.00;;;0.32;;
77738;SDS011;66904;59.926;30.404;2023-09-19T07:46:03;0.40;;;0.20;;
77738;SDS011;66904;59.926;30.404;2023-09-19T07:51:08;0.50;;;0.30;;
77738;SDS011;66904;59.926;30.404;2023-09-19T07:56:09;1.00;;;0.50;;
77738;SDS011;66904;59.926;30.404;2023-09-19T08:01:10;1.42;;;0.47;;
77738;SDS011;66904;59.926;30.404;2023-09-19T08:06:13;3.67;;;0.55;;
77738;SDS011;66904;59.926;30.404;2023-09-19T08:11:14;1.00;;;0.47;;
77738;SDS011;66904;59.926;30.404;2023-09-19T08:16:21;2.08;;;0.47;;
77738;SDS011;66904;59.926;30.404;2023-09-19T08:21:22;0.95;;;0.43;;
77738;SDS011;66904;59.926;30.404;2023-09-19T08:26:24;1.38;;;0.55;;
77738;SDS011;66904;59.926;30.404;2023-09-19T08:31:25;2.80;;;0.70;;
77738;SDS011;66904;59.926;30.404;2023-09-19T08:36:26;1.50;;;0.70;;
77738;SDS011;66904;59.926;30.404;2023-09-19T08:41:27;1.25;;;0.73;;
77738;SDS011;66904;59.926;30.404;2023-09-19T08:46:27;1.00;;;0.50;;
77738;SDS011;66904;59.926;30.404;2023-09-19T08:51:44;1.15;;;0.50;;
77738;SDS011;66904;59.926;30.404;2023-09-19T08:56:50;8.75;;;5.60;;
77738;SDS011;66904;59.926;30.404;2023-09-19T09:01:53;0.88;;;0.40;;
77738;SDS011;66904;59.926;30.404;2023-09-19T09:06:56;0.98;;;0.57;;
77738;SDS011;66904;59.926;30.404;2023-09-19T09:11:58;1.52;;;0.80;;
77738;SDS011;66904;59.926;30.404;2023-09-19T09:16:59;2.53;;;1.50;;
77738;SDS011;66904;59.926;30.404;2023-09-19T09:22:10;1.35;;;0.65;;
77738;SDS011;66904;59.926;30.404;2023-09-19T09:27:11;1.38;;;0.50;;
77738;SDS011;66904;59.926;30.404;2023-09-19T09:32:16;1.00;;;0.50;;
77738;SDS011;66904;59.926;30.404;2023-09-19T09:37:22;0.77;;;0.30;;
77738;SDS011;66904;59.926;30.404;2023-09-19T09:42:34;4.82;;;0.77;;
77738;SDS011;66904;59.926;30.404;2023-09-19T09:48:09;1.42;;;0.82;;
77738;SDS011;66904;59.926;30.404;2023-09-19T09:53:03;2.83;;;0.70;;
77738;SDS011;66904;59.926;30.404;2023-09-19T09:58:17;0.95;;;0.47;;
77738;SDS011;66904;59.926;30.404;2023-09-19T10:03:21;4.22;;;0.82;;
77738;SDS011;66904;59.926;30.404;2023-09-19T10:08:22;1.00;;;0.50;;
77738;SDS011;66904;59.926;30.404;2023-09-19T10:13:23;1.40;;;0.63;;
77738;SDS011;66904;59.926;30.404;2023-09-19T10:18:28;3.75;;;0.60;;
77738;SDS011;66904;59.926;30.404;2023-09-19T10:23:33;2.10;;;0.40;;
77738;SDS011;66904;59.926;30.404;2023-09-19T10:28:34;1.13;;;0.52;;
77738;SDS011;66904;59.926;30.404;2023-09-19T10:33:35;0.68;;;0.47;;
77738;SDS011;66904;59.926;30.404;2023-09-19T10:38:42;1.00;;;0.57;;
77738;SDS011;66904;59.926;30.404;2023-09-19T10:43:46;1.10;;;0.57;;
77738;SDS011;66904;59.926;30.404;2023-09-19T10:48:49;1.75;;;0.75;;
77738;SDS011;66904;59.926;30.404;2023-09-19T10:53:55;1.58;;;0.73;;
77738;SDS011;66904;59.926;30.404;2023-09-19T10:59:20;1.33;;;0.65;;
77738;SDS011;66904;59.926;30.404;2023-09-19T11:09:44;0.88;;;0.52;;
77738;SDS011;66904;59.926;30.404;2023-09-19T11:14:54;1.40;;;0.80;;
77738;SDS011;66904;59.926;30.404;2023-09-19T11:30:32;3.28;;;2.00;;
77738;SDS011;66904;59.926;30.404;2023-09-19T11:46:21;2.72;;;1.92;;
77738;SDS011;66904;59.926;30.404;2023-09-19T11:51:23;3.83;;;2.47;;
77738;SDS011;66904;59.926;30.404;2023-09-19T11:56:27;2.75;;;1.80;;
77738;SDS011;66904;59.926;30.404;2023-09-19T12:06:29;2.35;;;1.73;;
77738;SDS011;66904;59.926;30.404;2023-09-19T12:11:32;2.70;;;2.00;;
77738;SDS011;66904;59.926;30.404;2023-09-19T12:16:35;2.63;;;1.42;;
77738;SDS011;66904;59.926;30.404;2023-09-19T12:21:36;2.60;;;1.77;;
77738;SDS011;66904;59.926;30.404;2023-09-19T12:26:38;3.70;;;2.25;;
77738;SDS011;66904;59.926;30.404;2023-09-19T12:31:47;2.63;;;1.92;;
77738;SDS011;66904;59.926;30.404;2023-09-19T12:37:02;2.40;;;1.88;;
77738;SDS011;66904;59.926;30.404;2023-09-19T12:42:05;3.22;;;1.90;;
77738;SDS011;66904;59.926;30.404;2023-09-19T12:47:09;4.80;;;2.75;;
77738;SDS011;66904;59.926;30.404;2023-09-19T12:52:11;2.97;;;1.70;;
77738;SDS011;66904;59.926;30.404;2023-09-19T12:57:23;3.95;;;1.73;;
77738;SDS011;66904;59.926;30.404;2023-09-19T13:02:25;2.85;;;1.80;;
77738;SDS011;66904;59.926;30.404;2023-09-19T13:07:45;2.47;;;1.48;;
77738;SDS011;66904;59.926;30.404;2023-09-19T13:12:50;2.58;;;1.40;;
77738;SDS011;66904;59.926;30.404;2023-09-19T13:17:50;2.67;;;1.65;;
77738;SDS011;66904;59.926;30.404;2023-09-19T13:22:53;3.10;;;1.55;;
77738;SDS011;66904;59.926;30.404;2023-09-19T13:27:58;3.20;;;1.60;;
77738;SDS011;66904;59.926;30.404;2023-09-19T13:33:06;3.70;;;1.98;;
77738;SDS011;66904;59.926;30.404;2023-09-19T13:38:09;4.28;;;1.83;;
77738;SDS011;66904;59.926;30.404;2023-09-19T13:43:11;3.28;;;1.67;;
77738;SDS011;66904;59.926;30.404;2023-09-19T13:48:12;9.20;;;2.15;;
77738;SDS011;66904;59.926;30.404;2023-09-19T13:53:12;5.50;;;2.38;;
77738;SDS011;66904;59.926;30.404;2023-09-19T13:58:13;6.10;;;1.65;;
77738;SDS011;66904;59.926;30.404;2023-09-19T14:03:14;2.40;;;1.40;;
77738;SDS011;66904;59.926;30.404;2023-09-19T14:08:14;4.10;;;2.00;;
77738;SDS011;66904;59.926;30.404;2023-09-19T14:13:15;2.20;;;1.20;;
77738;SDS011;66904;59.926;30.404;2023-09-19T14:18:16;2.50;;;1.40;;
77738;SDS011;66904;59.926;30.404;2023-09-19T14:23:16;2.13;;;1.27;;
77738;SDS011;66904;59.926;30.404;2023-09-19T14:28:17;2.75;;;1.35;;
77738;SDS011;66904;59.926;30.404;2023-09-19T14:33:18;2.45;;;1.30;;
77738;SDS011;66904;59.926;30.404;2023-09-19T14:38:19;3.10;;;1.60;;
77738;SDS011;66904;59.926;30.404;2023-09-19T14:43:19;1.98;;;1.00;;
77738;SDS011;66904;59.926;30.404;2023-09-19T14:48:20;2.38;;;1.23;;
77738;SDS011;66904;59.926;30.404;2023-09-19T14:53:23;1.98;;;1.48;;
77738;SDS011;66904;59.926;30.404;2023-09-19T14:58:25;2.55;;;1.50;;
77738;SDS011;66904;59.926;30.404;2023-09-19T15:03:27;1.60;;;0.95;;
77738;SDS011;66904;59.926;30.404;2023-09-19T15:08:30;2.88;;;1.40;;
77738;SDS011;66904;59.926;30.404;2023-09-19T15:13:40;3.03;;;1.02;;
77738;SDS011;66904;59.926;30.404;2023-09-19T15:18:42;3.03;;;1.17;;
77738;SDS011;66904;59.926;30.404;2023-09-19T15:23:45;1.65;;;1.02;;
77738;SDS011;66904;59.926;30.404;2023-09-19T15:28:46;3.35;;;1.40;;
77738;SDS011;66904;59.926;30.404;2023-09-19T15:33:48;1.30;;;0.75;;
77738;SDS011;66904;59.926;30.404;2023-09-19T15:38:55;1.90;;;1.15;;
77738;SDS011;66904;59.926;30.404;2023-09-19T15:44:01;1.50;;;0.85;;
77738;SDS011;66904;59.926;30.404;2023-09-19T15:49:03;2.13;;;1.08;;
77738;SDS011;66904;59.926;30.404;2023-09-19T15:54:07;1.63;;;0.90;;
77738;SDS011;66904;59.926;30.404;2023-09-19T15:59:14;1.70;;;1.10;;
77738;SDS011;66904;59.926;30.404;2023-09-19T16:04:15;1.73;;;1.20;;
77738;SDS011;66904;59.926;30.404;2023-09-19T16:09:17;3.08;;;1.00;;
77738;SDS011;66904;59.926;30.404;2023-09-19T16:14:17;4.18;;;1.35;;
77738;SDS011;66904;59.926;30.404;2023-09-19T16:19:18;2.58;;;1.00;;
77738;SDS011;66904;59.926;30.404;2023-09-19T16:24:19;1.98;;;1.13;;
77738;SDS011;66904;59.926;30.404;2023-09-19T16:29:19;5.43;;;1.15;;
77738;SDS011;66904;59.926;30.404;2023-09-19T16:34:24;1.27;;;0.85;;
77738;SDS011;66904;59.926;30.404;2023-09-19T16:39:25;3.33;;;1.50;;
77738;SDS011;66904;59.926;30.404;2023-09-19T16:44:26;2.15;;;1.42;;
77738;SDS011;66904;59.926;30.404;2023-09-19T16:49:29;3.60;;;1.10;;
77738;SDS011;66904;59.926;30.404;2023-09-19T16:54:30;4.70;;;1.23;;
77738;SDS011;66904;59.926;30.404;2023-09-19T16:59:30;2.70;;;1.10;;
77738;SDS011;66904;59.926;30.404;2023-09-19T17:04:31;4.97;;;1.63;;
77738;SDS011;66904;59.926;30.404;2023-09-19T17:09:32;14.27;;;3.42;;
77738;SDS011;66904;59.926;30.404;2023-09-19T17:14:35;19.00;;;7.45;;
77738;SDS011;66904;59.926;30.404;2023-09-19T17:19:36;10.23;;;3.95;;
77738;SDS011;66904;59.926;30.404;2023-09-19T17:24:37;9.73;;;3.85;;
77738;SDS011;66904;59.926;30.404;2023-09-19T17:29:37;6.63;;;3.78;;
77738;SDS011;66904;59.926;30.404;2023-09-19T17:34:38;7.03;;;3.05;;
77738;SDS011;66904;59.926;30.404;2023-09-19T17:39:39;4.57;;;2.85;;
77738;SDS011;66904;59.926;30.404;2023-09-19T17:44:39;4.32;;;2.83;;
77738;SDS011;66904;59.926;30.404;2023-09-19T17:49:40;3.45;;;1.83;;
77738;SDS011;66904;59.926;30.404;2023-09-19T17:54:43;5.03;;;2.08;;
77738;SDS011;66904;59.926;30.404;2023-09-19T17:59:44;4.13;;;1.77;;
77738;SDS011;66904;59.926;30.404;2023-09-19T18:04:45;2.50;;;1.60;;
77738;SDS011;66904;59.926;30.404;2023-09-19T18:09:46;3.30;;;1.70;;
77738;SDS011;66904;59.926;30.404;2023-09-19T18:14:47;4.22;;;1.73;;
77738;SDS011;66904;59.926;30.404;2023-09-19T18:19:48;4.50;;;1.75;;
77738;SDS011;66904;59.926;30.404;2023-09-19T18:24:50;4.30;;;1.90;;
77738;SDS011;66904;59.926;30.404;2023-09-19T18:29:50;2.58;;;1.88;;
77738;SDS011;66904;59.926;30.404;2023-09-19T18:34:51;3.55;;;1.70;;
77738;SDS011;66904;59.926;30.404;2023-09-19T18:39:51;2.53;;;1.80;;
77738;SDS011;66904;59.926;30.404;2023-09-19T18:44:52;2.92;;;1.33;;
77738;SDS011;66904;59.926;30.404;2023-09-19T18:49:53;3.00;;;1.63;;
77738;SDS011;66904;59.926;30.404;2023-09-19T18:54:54;3.97;;;2.00;;
77738;SDS011;66904;59.926;30.404;2023-09-19T18:59:55;3.10;;;1.58;;
77738;SDS011;66904;59.926;30.404;2023-09-19T19:04:56;2.35;;;1.42;;
77738;SDS011;66904;59.926;30.404;2023-09-19T19:09:58;2.58;;;1.60;;
77738;SDS011;66904;59.926;30.404;2023-09-19T19:14:59;4.10;;;1.52;;
77738;SDS011;66904;59.926;30.404;2023-09-19T19:20:01;3.20;;;1.50;;
77738;SDS011;66904;59.926;30.404;2023-09-19T19:25:05;2.67;;;1.70;;
77738;SDS011;66904;59.926;30.404;2023-09-19T19:30:09;3.65;;;1.75;;
77738;SDS011;66904;59.926;30.404;2023-09-19T19:35:11;2.88;;;1.55;;
77738;SDS011;66904;59.926;30.404;2023-09-19T19:40:13;2.33;;;1.38;;
77738;SDS011;66904;59.926;30.404;2023-09-19T19:45:13;2.53;;;1.88;;
77738;SDS011;66904;59.926;30.404;2023-09-19T19:50:14;3.15;;;2.03;;
77738;SDS011;66904;59.926;30.404;2023-09-19T19:55:16;3.00;;;1.45;;
77738;SDS011;66904;59.926;30.404;2023-09-19T20:00:16;2.50;;;1.40;;
77738;SDS011;66904;59.926;30.404;2023-09-19T20:05:20;3.28;;;2.22;;
77738;SDS011;66904;59.926;30.404;2023-09-19T20:10:20;4.30;;;2.15;;
77738;SDS011;66904;59.926;30.404;2023-09-19T20:15:22;3.97;;;1.65;;
77738;SDS011;66904;59.926;30.404;2023-09-19T20:20:25;2.70;;;1.80;;
77738;SDS011;66904;59.926;30.404;2023-09-19T20:25:27;3.00;;;1.35;;
77738;SDS011;66904;59.926;30.404;2023-09-19T20:30:28;2.45;;;1.70;;
77738;SDS011;66904;59.926;30.404;2023-09-19T20:35:29;2.17;;;1.40;;
77738;SDS011;66904;59.926;30.404;2023-09-19T20:40:33;4.55;;;2.33;;
77738;SDS011;66904;59.926;30.404;2023-09-19T20:45:36;2.75;;;1.40;;
77738;SDS011;66904;59.926;30.404;2023-09-19T20:50:40;3.47;;;1.50;;
77738;SDS011;66904;59.926;30.404;2023-09-19T20:55:41;2.40;;;1.30;;
77738;SDS011;66904;59.926;30.404;2023-09-19T21:00:41;2.08;;;1.33;;
77738;SDS011;66904;59.926;30.404;2023-09-19T21:05:42;3.17;;;1.35;;
77738;SDS011;66904;59.926;30.404;2023-09-19T21:10:42;2.10;;;1.33;;
77738;SDS011;66904;59.926;30.404;2023-09-19T21:15:43;2.90;;;2.13;;
77738;SDS011;66904;59.926;30.404;2023-09-19T21:20:43;2.78;;;1.75;;
77738;SDS011;66904;59.926;30.404;2023-09-19T21:25:53;5.25;;;2.22;;
77738;SDS011;66904;59.926;30.404;2023-09-19T21:30:57;6.32;;;1.85;;
77738;SDS011;66904;59.926;30.404;2023-09-19T21:36:05;2.63;;;1.70;;
77738;SDS011;66904;59.926;30.404;2023-09-19T21:41:10;3.95;;;1.40;;
77738;SDS011;66904;59.926;30.404;2023-09-19T21:46:14;2.65;;;1.50;;
77738;SDS011;66904;59.926;30.404;2023-09-19T21:51:15;2.22;;;1.50;;
77738;SDS011;66904;59.926;30.404;2023-09-19T21:56:16;1.77;;;1.15;;
77738;SDS011;66904;59.926;30.404;2023-09-19T22:01:18;2.90;;;1.23;;
77738;SDS011;66904;59.926;30.404;2023-09-19T22:06:22;2.97;;;1.10;;
77738;SDS011;66904;59.926;30.404;2023-09-19T22:11:23;2.55;;;1.55;;
77738;SDS011;66904;59.926;30.404;2023-09-19T22:16:24;2.50;;;1.50;;
77738;SDS011;66904;59.926;30.404;2023-09-19T22:21:25;2.55;;;1.23;;
77738;SDS011;66904;59.926;30.404;2023-09-19T22:26:37;3.05;;;1.33;;
77738;SDS011;66904;59.926;30.404;2023-09-19T22:31:38;2.13;;;1.25;;
77738;SDS011;66904;59.926;30.404;2023-09-19T22:36:42;2.33;;;1.20;;
77738;SDS011;66904;59.926;30.404;2023-09-19T22:41:44;2.72;;;1.30;;
77738;SDS011;66904;59.926;30.404;2023-09-19T22:46:45;2.40;;;1.15;;
77738;SDS011;66904;59.926;30.404;2023-09-19T22:51:48;2.40;;;1.40;;
77738;SDS011;66904;59.926;30.404;2023-09-19T22:56:54;1.75;;;1.08;;
77738;SDS011;66904;59.926;30.404;2023-09-19T23:01:55;1.85;;;0.95;;
77738;SDS011;66904;59.926;30.404;2023-09-19T23:06:57;1.67;;;1.33;;
77738;SDS011;66904;59.926;30.404;2023-09-19T23:12:05;2.42;;;1.10;;
77738;SDS011;66904;59.926;30.404;2023-09-19T23:17:19;3.13;;;1.27;;
77738;SDS011;66904;59.926;30.404;2023-09-19T23:22:21;3.15;;;1.00;;
77738;SDS011;66904;59.926;30.404;2023-09-19T23:27:28;2.75;;;1.10;;
77738;SDS011;66904;59.926;30.404;2023-09-19T23:32:34;2.20;;;1.48;;
77738;SDS011;66904;59.926;30.404;2023-09-19T23:37:35;2.53;;;1.13;;
77738;SDS011;66904;59.926;30.404;2023-09-19T23:42:35;1.27;;;0.75;;
77738;SDS011;66904;59.926;30.404;2023-09-19T23:47:36;1.75;;;0.85;;
77738;SDS011;66904;59.926;30.404;2023-09-19T23:52:38;1.73;;;0.82;;
77738;SDS011;66904;59.926;30.404;2023-09-19T23:57:39;2.03;;;0.90;;
